createdAt,value
2022-08-10T00:44:23.026Z,21.72
2022-08-10T00:46:48.963Z,21.85
2022-08-10T00:49:15.538Z,21.77
2022-08-10T11:10:33.872Z,32.12
2022-08-10T11:13:05.349Z,32.23
2022-08-10T11:15:47.698Z,32.43
2022-08-10T11:18:14.081Z,32.51
2022-08-10T11:20:43.097Z,31.94
2022-08-10T11:23:09.086Z,32.85
2022-08-10T11:25:35.022Z,32.99
2022-08-10T11:28:00.961Z,32.27
2022-08-10T11:30:26.947Z,31.72
2022-08-10T11:32:52.903Z,31.60
2022-08-10T11:35:18.877Z,31.42
2022-08-10T11:38:31.397Z,31.46
2022-08-10T11:40:30.989Z,30.88
2022-08-10T11:42:56.970Z,31.27
2022-08-10T11:45:22.917Z,31.05
2022-08-10T11:47:48.853Z,31.09
2022-08-10T11:50:14.844Z,30.70
2022-08-10T11:52:40.795Z,31.50
2022-08-10T11:55:06.738Z,32.72
2022-08-10T11:57:54.714Z,32.66
2022-08-10T12:00:18.671Z,32.68
2022-08-10T12:02:44.745Z,33.11
2022-08-10T12:05:10.745Z,32.98
2022-08-10T12:10:07.323Z,32.54
2022-08-10T12:10:22.675Z,31.76
2022-08-10T12:12:48.618Z,31.39
2022-08-10T12:15:14.553Z,31.80
2022-08-10T12:17:40.538Z,32.04
2022-08-10T12:20:06.595Z,32.23
2022-08-10T12:22:32.680Z,32.68
2022-08-10T12:24:58.762Z,33.31
2022-08-10T12:27:24.711Z,33.52
2022-08-10T12:29:50.688Z,33.66
2022-08-10T12:32:16.678Z,33.99
2022-08-10T12:34:50.983Z,34.30
2022-08-10T12:37:17.115Z,33.46
2022-08-10T12:39:43.138Z,33.46
2022-08-10T12:42:09.134Z,33.71
2022-08-10T12:44:41.743Z,33.61
2022-08-10T12:47:14.119Z,32.21
2022-08-10T12:49:40.606Z,32.22
2022-08-10T12:52:26.686Z,33.06
2022-08-10T12:54:52.714Z,33.32
2022-08-10T12:57:18.658Z,32.62
2022-08-10T12:59:44.607Z,32.43
2022-08-10T13:02:11.106Z,32.48
2022-08-10T13:04:37.150Z,33.39
2022-08-10T13:07:03.106Z,33.06
2022-08-10T13:09:29.119Z,33.20
2022-08-10T13:12:44.271Z,33.06
2022-08-10T13:14:41.073Z,32.52
2022-08-10T13:17:07.010Z,32.77
2022-08-10T13:19:55.211Z,33.08
2022-08-10T13:22:20.203Z,33.86
2022-08-10T13:24:46.568Z,33.80
2022-08-10T13:27:26.686Z,34.33
2022-08-10T13:29:53.494Z,34.65
2022-08-10T13:32:19.967Z,34.96
2022-08-10T13:34:46.492Z,34.93
2022-08-10T13:37:13.117Z,35.27
2022-08-10T13:39:59.857Z,34.89
2022-08-10T13:42:31.941Z,35.14
2022-08-10T13:44:59.220Z,34.38
2022-08-10T13:47:25.512Z,32.56
2022-08-10T13:49:51.767Z,32.64
2022-08-10T13:52:18.925Z,32.57
2022-08-10T13:54:44.908Z,32.51
2022-08-10T13:57:10.893Z,32.11
2022-08-10T14:00:35.372Z,32.09
2022-08-10T14:02:22.844Z,32.57
2022-08-10T14:04:48.807Z,32.09
2022-08-10T14:07:14.751Z,31.97
2022-08-10T14:09:40.732Z,31.95
2022-08-10T14:12:06.692Z,32.13
2022-08-10T14:14:32.638Z,32.07
2022-08-10T14:16:58.648Z,32.28
2022-08-10T14:19:24.586Z,32.31
2022-08-10T14:21:50.901Z,31.98
2022-08-10T14:24:16.890Z,32.20
2022-08-10T14:26:42.825Z,32.34
2022-08-10T14:29:08.774Z,32.20
2022-08-10T14:31:34.767Z,32.51
2022-08-10T14:34:00.712Z,31.96
2022-08-10T14:36:26.657Z,32.02
2022-08-10T14:38:53.109Z,32.42
2022-08-10T14:42:01.132Z,32.56
2022-08-10T14:44:05.121Z,32.45
2022-08-10T14:46:31.057Z,32.77
2022-08-10T14:48:58.791Z,32.52
2022-08-10T14:51:24.771Z,32.95
2022-08-10T14:53:53.644Z,32.96
2022-08-10T14:56:20.142Z,32.49
2022-08-10T14:58:58.798Z,32.46
2022-08-10T15:02:00.158Z,31.60
2022-08-10T15:04:18.098Z,30.98
2022-08-10T15:06:47.497Z,30.82
2022-08-10T15:09:19.903Z,31.12
2022-08-10T15:12:15.513Z,31.42
2022-08-10T15:14:42.174Z,31.22
2022-08-10T15:17:09.761Z,31.49
2022-08-10T15:20:02.352Z,31.83
2022-08-10T15:22:37.017Z,32.21
2022-08-10T15:25:04.260Z,32.59
2022-08-10T15:27:30.230Z,32.57
2022-08-10T15:29:56.977Z,32.60
2022-08-10T15:32:24.077Z,32.30
2022-08-10T15:34:52.872Z,32.73
2022-08-10T15:37:47.164Z,32.81
2022-08-10T15:40:25.729Z,33.03
2022-08-10T15:42:51.597Z,32.29
2022-08-10T15:45:17.591Z,32.47
2022-08-10T15:47:45.841Z,32.93
2022-08-10T15:50:12.611Z,32.99
2022-08-10T15:52:39.899Z,32.80
2022-08-10T15:55:42.821Z,32.72
2022-08-10T15:58:10.506Z,32.36
2022-08-10T16:00:36.451Z,32.27
2022-08-10T16:03:02.446Z,32.08
2022-08-10T16:06:01.090Z,31.83
2022-08-10T16:08:17.215Z,31.66
2022-08-10T16:10:43.283Z,31.45
2022-08-10T16:13:50.490Z,30.83
2022-08-10T16:16:05.607Z,30.38
2022-08-10T16:18:31.559Z,30.82
2022-08-10T16:20:57.535Z,31.31
2022-08-10T16:23:23.539Z,31.43
2022-08-10T16:25:53.490Z,31.10
2022-08-10T16:28:26.565Z,31.48
2022-08-10T16:30:52.530Z,31.88
2022-08-10T16:33:18.505Z,31.76
2022-08-10T16:35:49.494Z,31.63
2022-08-10T16:38:15.894Z,31.91
2022-08-10T16:40:41.897Z,31.81
2022-08-10T16:43:07.946Z,31.48
2022-08-10T16:45:33.930Z,31.45
2022-08-10T16:47:59.856Z,31.68
2022-08-10T16:50:25.844Z,31.82
2022-08-10T16:52:51.799Z,31.67
2022-08-10T16:55:24.762Z,31.63
2022-08-10T16:58:03.715Z,31.74
2022-08-10T17:00:29.656Z,31.96
2022-08-10T17:02:55.589Z,32.28
2022-08-10T17:06:09.731Z,32.30
2022-08-10T17:08:07.489Z,32.07
2022-08-10T17:10:33.480Z,31.97
2022-08-10T17:12:59.423Z,31.82
2022-08-10T17:15:25.399Z,31.68
2022-08-10T17:17:51.429Z,31.49
2022-08-10T17:20:32.084Z,31.38
2022-08-10T17:22:58.673Z,31.20
2022-08-10T17:25:25.010Z,31.05
2022-08-10T17:28:11.000Z,30.97
2022-08-10T17:30:57.513Z,30.96
2022-08-10T17:33:24.424Z,30.80
2022-08-10T17:35:50.379Z,30.61
2022-08-10T17:38:16.325Z,30.61
2022-08-10T17:40:42.318Z,30.57
2022-08-10T17:43:08.263Z,30.56
2022-08-10T17:45:46.492Z,30.42
2022-08-10T17:48:15.246Z,30.36
2022-08-10T17:50:41.191Z,30.31
2022-08-10T17:53:07.142Z,30.23
2022-08-10T17:55:33.131Z,30.27
2022-08-10T17:58:01.917Z,30.09
2022-08-10T18:00:28.695Z,30.03
2022-08-10T18:02:54.779Z,30.03
2022-08-10T18:05:20.729Z,29.90
2022-08-10T18:07:46.679Z,29.89
2022-08-10T18:10:12.675Z,29.82
2022-08-10T18:12:39.157Z,29.70
2022-08-10T18:15:05.162Z,29.78
2022-08-10T18:17:37.540Z,29.70
2022-08-10T18:20:05.166Z,29.65
2022-08-10T18:22:31.110Z,29.63
2022-08-10T18:24:58.351Z,29.54
2022-08-10T18:28:00.214Z,29.47
2022-08-10T18:30:10.295Z,29.39
2022-08-10T18:32:36.239Z,29.42
2022-08-10T18:35:02.183Z,29.26
2022-08-10T18:37:28.214Z,29.22
2022-08-10T18:39:54.210Z,29.22
2022-08-10T18:42:20.212Z,29.07
2022-08-10T18:44:46.196Z,29.00
2022-08-10T18:47:12.137Z,28.97
2022-08-10T18:49:38.125Z,28.91
2022-08-10T18:52:04.106Z,28.92
2022-08-10T18:54:34.483Z,28.56
2022-08-10T18:57:10.570Z,28.82
2022-08-10T18:59:36.510Z,28.75
2022-08-10T19:02:02.460Z,28.72
2022-08-10T19:04:28.455Z,28.73
2022-08-10T19:06:54.423Z,28.64
2022-08-10T19:09:45.438Z,28.55
2022-08-10T19:12:06.370Z,28.53
2022-08-10T19:14:52.294Z,28.39
2022-08-10T19:17:18.297Z,28.34
2022-08-10T19:19:44.230Z,28.18
2022-08-10T19:22:10.183Z,28.19
2022-08-10T19:24:36.180Z,28.01
2022-08-10T19:27:02.142Z,28.05
2022-08-10T19:30:08.441Z,27.88
2022-08-10T19:32:14.178Z,27.84
2022-08-10T19:34:40.149Z,27.58
2022-08-10T19:37:06.086Z,27.45
2022-08-10T19:39:32.139Z,27.33
2022-08-10T19:42:11.850Z,27.21
2022-08-10T19:44:38.498Z,27.09
2022-08-10T19:47:04.444Z,27.01
2022-08-10T19:49:30.402Z,27.06
2022-08-10T19:52:05.014Z,26.84
2022-08-10T19:54:37.031Z,26.79
2022-08-10T19:57:02.995Z,26.78
2022-08-10T20:00:15.246Z,26.83
2022-08-10T20:02:14.979Z,26.72
2022-08-10T20:04:40.991Z,26.80
2022-08-10T20:07:06.946Z,26.76
2022-08-10T20:09:32.895Z,26.69
2022-08-10T20:11:58.911Z,26.74
2022-08-10T20:14:24.860Z,26.62
2022-08-10T20:16:50.799Z,26.59
2022-08-10T20:19:17.464Z,26.61
2022-08-10T20:21:43.413Z,26.61
2022-08-10T20:24:09.358Z,26.55
2022-08-10T20:26:35.350Z,26.44
2022-08-10T20:29:01.308Z,26.38
2022-08-10T20:31:27.245Z,26.20
2022-08-10T20:33:56.355Z,26.30
2022-08-10T20:36:24.662Z,26.42
2022-08-10T20:38:50.603Z,26.40
2022-08-10T20:41:16.580Z,26.43
2022-08-10T20:43:42.536Z,26.37
2022-08-10T20:46:09.439Z,26.38
2022-08-10T20:48:35.569Z,26.42
2022-08-10T20:51:01.511Z,26.12
2022-08-10T20:53:27.454Z,26.38
2022-08-10T20:55:54.246Z,26.09
2022-08-10T20:58:20.413Z,26.30
2022-08-10T21:00:46.399Z,26.18
2022-08-10T21:03:15.987Z,26.15
2022-08-10T21:05:47.299Z,26.06
2022-08-10T21:08:13.294Z,26.20
2022-08-10T21:10:39.251Z,26.17
2022-08-10T21:13:05.209Z,26.02
2022-08-10T21:15:31.216Z,26.03
2022-08-10T21:18:08.119Z,25.82
2022-08-10T21:20:34.159Z,25.75
2022-08-10T21:23:05.420Z,25.76
2022-08-10T21:25:31.712Z,25.62
2022-08-10T21:27:59.149Z,25.56
2022-08-10T21:30:25.089Z,25.36
2022-08-10T21:32:51.035Z,25.45
2022-08-10T21:35:20.136Z,25.30
2022-08-10T21:38:02.147Z,25.36
2022-08-10T21:40:35.255Z,25.21
2022-08-10T21:43:01.845Z,25.04
2022-08-10T21:45:47.535Z,24.99
2022-08-10T21:48:17.233Z,24.64
2022-08-10T21:50:45.721Z,24.94
2022-08-10T21:53:12.310Z,24.96
2022-08-10T21:58:28.740Z,24.91
2022-08-10T22:00:54.784Z,24.83
2022-08-10T22:03:20.810Z,24.69
2022-08-10T22:05:46.753Z,24.65
2022-08-10T22:08:12.721Z,24.78
2022-08-10T22:10:40.951Z,24.77
2022-08-10T22:13:08.569Z,24.71
2022-08-10T22:16:03.603Z,24.75
2022-08-10T22:21:08.977Z,24.66
2022-08-10T22:23:34.875Z,24.49
2022-08-10T22:26:01.988Z,24.50
2022-08-10T22:28:27.926Z,24.51
2022-08-10T22:31:28.428Z,24.84
2022-08-10T22:31:28.552Z,24.74
2022-08-10T22:31:28.835Z,24.24
2022-08-10T22:33:39.962Z,24.42
2022-08-10T22:36:05.857Z,24.49
2022-08-10T22:38:31.756Z,24.32
2022-08-10T22:40:57.725Z,24.34
2022-08-10T22:43:35.168Z,24.33
2022-08-10T22:46:01.868Z,24.21
2022-08-10T22:48:27.770Z,24.25
2022-08-10T22:50:53.669Z,24.01
2022-08-10T22:53:19.636Z,24.00
2022-08-10T22:55:45.538Z,23.96
2022-08-10T22:58:11.429Z,23.95
2022-08-10T23:00:37.407Z,23.95
2022-08-10T23:03:03.349Z,23.83
2022-08-10T23:05:29.304Z,23.84
2022-08-10T23:07:55.254Z,23.94
2022-08-10T23:10:21.143Z,24.02
2022-08-10T23:12:47.030Z,23.78
2022-08-10T23:15:12.982Z,23.76
2022-08-10T23:18:00.849Z,23.57
2022-08-10T23:20:24.790Z,23.67
2022-08-10T23:22:50.728Z,23.60
2022-08-10T23:25:16.667Z,23.48
2022-08-10T23:27:44.869Z,23.46
2022-08-10T23:30:16.966Z,23.31
2022-08-10T23:32:44.121Z,23.15
2022-08-10T23:36:29.498Z,23.19
2022-08-10T23:37:55.951Z,23.13
2022-08-10T23:40:21.895Z,22.88
2022-08-10T23:42:48.955Z,22.82
2022-08-10T23:45:14.846Z,22.99
2022-08-10T23:47:40.799Z,22.79
2022-08-10T23:50:06.718Z,22.68
2022-08-10T23:52:32.616Z,22.94
2022-08-10T23:54:58.570Z,22.72
2022-08-10T23:57:24.468Z,22.61
2022-08-10T23:59:50.371Z,22.56
